Terminal Aerodrome Forecast
Issued by NWS Chicago, IL

Home | Current Version | Previous Version | Graphics & Text | Print | Product List | Glossary On
Versions: 1 2 3 4 5 6 7 8 9 10 11 12 13 14 15 16 17 18 19 20 21 22 23 24 25 26 27 28 29 30 31 32 33 34
000
FTUS43 KLOT 290532
TAFRFD
TAF
KRFD 290532Z 2906/3006 21006KT P6SM VCTS SCT020 OVC040CB
     FM290800 25008KT P6SM VCSH BKN020
     FM291200 29011G16KT P6SM SCT020 BKN150
     FM291500 29013G20KT P6SM FEW250
     FM300100 26006KT P6SM FEW250=

USA.gov is the U.S. government's official web portal to all federal, state and local government web resources and services.